Miami, New Mexico
Current Conditions -  °F | °C
As of 1:15 PM on Thursday 18 Dec 2014 (Local Time) from KAXX Reporting Station
Clear Clear  
Wind Chill: 22°   Ceiling: Unl
Heat Index: 31°   Visibility: 10mi
Dew Point: 22°   Wind: 12mph
Humidity: 68%   Direction: 270°W
Pressure: 30.04"   Gusts: NA
Location:  36.35°N, 104.8°W
Report Text: KAXX 182015Z AUTO 27010KT 10SM CLR M01/M06 A3004 RMK AO2 T10061058
Loading
Personal Weather Stations






























Interactive Weather Map New forecast layout! Learn more

10-Day Weather Forecast

Advertisements
Track Severe Weather on mobile